LAN267 SCEL-SCTE
Flight info
| Callsign | LAN267 |
|---|---|
| Flight time | N/A |
| Altitude | 35000 |
| Route | ANGOD6C ANGOD UQ803 ERUKA UT121 SARTO SARTO1B |
| Aircraft | A320/M-SDE3FGHIRWY/LB1 |
Departure
| Time | 2026-05-05 23:33 |
|---|---|
| Airport | Comodoro Arturo Merino Benítez International Airport (SCEL) |
Arrival
| Time | N/A |
|---|---|
| Airport | El Tepual International Airport (SCTE) |
| Time | Latitude | Longitude | Altitude | Speed | Heading |
|---|---|---|---|---|---|
| 2026-05-05 23:04 | -33.39567 | -70.78966 | 1565 ft | 0 kts | 183° |
| 2026-05-05 23:21 | -33.39544 | -70.78965 | 1564 ft | 4 kts | 183° |
| 2026-05-05 23:21 | -33.39521 | -70.78963 | 1564 ft | 4 kts | 178° |
| 2026-05-05 23:21 | -33.39500 | -70.78971 | 1564 ft | 4 kts | 121° |
| 2026-05-05 23:22 | -33.39494 | -70.79000 | 1564 ft | 3 kts | 88° |
| 2026-05-05 23:22 | -33.39494 | -70.79003 | 1564 ft | 0 kts | 88° |
| 2026-05-05 23:24 | -33.39493 | -70.78974 | 1564 ft | 7 kts | 88° |
| 2026-05-05 23:24 | -33.39477 | -70.78895 | 1564 ft | 10 kts | 45° |
| 2026-05-05 23:24 | -33.39419 | -70.78897 | 1564 ft | 12 kts | 2° |
| 2026-05-05 23:25 | -33.39315 | -70.78903 | 1564 ft | 18 kts | 354° |
| 2026-05-05 23:25 | -33.39181 | -70.78905 | 1564 ft | 20 kts | 358° |
| 2026-05-05 23:25 | -33.39038 | -70.78913 | 1564 ft | 22 kts | 359° |
| 2026-05-05 23:25 | -33.38880 | -70.78923 | 1564 ft | 24 kts | 357° |
| 2026-05-05 23:26 | -33.38711 | -70.78932 | 1564 ft | 25 kts | 356° |
| 2026-05-05 23:26 | -33.38532 | -70.78942 | 1564 ft | 25 kts | 358° |
| 2026-05-05 23:26 | -33.38402 | -70.78950 | 1564 ft | 14 kts | 356° |
| 2026-05-05 23:26 | -33.38356 | -70.79018 | 1564 ft | 13 kts | 271° |
| 2026-05-05 23:27 | -33.38360 | -70.79132 | 1564 ft | 15 kts | 266° |
| 2026-05-05 23:27 | -33.38365 | -70.79263 | 1564 ft | 16 kts | 266° |
| 2026-05-05 23:27 | -33.38371 | -70.79401 | 1564 ft | 17 kts | 266° |
| 2026-05-05 23:27 | -33.38376 | -70.79545 | 1564 ft | 18 kts | 268° |
| 2026-05-05 23:28 | -33.38383 | -70.79693 | 1564 ft | 18 kts | 265° |
| 2026-05-05 23:28 | -33.38389 | -70.79842 | 1565 ft | 19 kts | 268° |
| 2026-05-05 23:28 | -33.38392 | -70.79956 | 1565 ft | 0 kts | 269° |
| 2026-05-05 23:28 | -33.38392 | -70.79958 | 1565 ft | 2 kts | 269° |
| 2026-05-05 23:29 | -33.38393 | -70.79995 | 1565 ft | 8 kts | 268° |
| 2026-05-05 23:29 | -33.38374 | -70.80102 | 1566 ft | 14 kts | 329° |
| 2026-05-05 23:29 | -33.38279 | -70.80113 | 1566 ft | 13 kts | 358° |
| 2026-05-05 23:29 | -33.38197 | -70.80119 | 1566 ft | 11 kts | 1° |
| 2026-05-05 23:30 | -33.38125 | -70.80118 | 1566 ft | 10 kts | 359° |
| 2026-05-05 23:30 | -33.38061 | -70.80122 | 1566 ft | 9 kts | 356° |
| 2026-05-05 23:30 | -33.38003 | -70.80128 | 1566 ft | 11 kts | 355° |
| 2026-05-05 23:30 | -33.37838 | -70.80137 | 1566 ft | 40 kts | 357° |
| 2026-05-05 23:31 | -33.37544 | -70.80152 | 1567 ft | 41 kts | 358° |
| 2026-05-05 23:31 | -33.37366 | -70.80162 | 1567 ft | 18 kts | 355° |
| 2026-05-05 23:31 | -33.37241 | -70.80166 | 1567 ft | 19 kts | 357° |
| 2026-05-05 23:31 | -33.37135 | -70.80192 | 1567 ft | 13 kts | 327° |
| 2026-05-05 23:32 | -33.37105 | -70.80282 | 1571 ft | 11 kts | 267° |
| 2026-05-05 23:32 | -33.37143 | -70.80362 | 1574 ft | 13 kts | 214° |
| 2026-05-05 23:32 | -33.37328 | -70.80367 | 1573 ft | 55 kts | 178° |
| 2026-05-05 23:32 | -33.37964 | -70.80334 | 1572 ft | 124 kts | 178° |
| 2026-05-05 23:33 | -33.39014 | -70.80281 | 1635 ft | 171 kts | 178° |
| 2026-05-05 23:33 | -33.40167 | -70.80246 | 2383 ft | 153 kts | 182° |
| 2026-05-05 23:33 | -33.41225 | -70.80235 | 2595 ft | 155 kts | 182° |
| 2026-05-05 23:33 | -33.42327 | -70.80271 | 2697 ft | 162 kts | 183° |
| 2026-05-05 23:34 | -33.43487 | -70.80296 | 2764 ft | 170 kts | 176° |
| 2026-05-05 23:34 | -33.44650 | -70.80242 | 2948 ft | 169 kts | 174° |
| 2026-05-05 23:34 | -33.45826 | -70.80165 | 3153 ft | 170 kts | 174° |
| 2026-05-05 23:34 | -33.47004 | -70.80085 | 3346 ft | 169 kts | 172° |
| 2026-05-05 23:35 | -33.48144 | -70.79783 | 3543 ft | 168 kts | 162° |
| 2026-05-05 23:35 | -33.49273 | -70.79404 | 3761 ft | 169 kts | 162° |
| 2026-05-05 23:35 | -33.50400 | -70.79017 | 4027 ft | 168 kts | 161° |
| 2026-05-05 23:35 | -33.51528 | -70.78627 | 4285 ft | 169 kts | 165° |
| 2026-05-05 23:36 | -33.52694 | -70.78461 | 4536 ft | 170 kts | 180° |
| 2026-05-05 23:36 | -33.53857 | -70.78672 | 4784 ft | 170 kts | 196° |
| 2026-05-05 23:36 | -33.54917 | -70.79315 | 4976 ft | 175 kts | 217° |
| 2026-05-05 23:36 | -33.55884 | -70.80263 | 5019 ft | 189 kts | 220° |
| 2026-05-05 23:37 | -33.56906 | -70.81341 | 5023 ft | 202 kts | 221° |
| 2026-05-05 23:37 | -33.57985 | -70.82499 | 5022 ft | 214 kts | 222° |
| 2026-05-05 23:37 | -33.59129 | -70.83729 | 5008 ft | 227 kts | 222° |
| 2026-05-05 23:37 | -33.60321 | -70.85006 | 5012 ft | 231 kts | 221° |
| 2026-05-05 23:38 | -33.61524 | -70.86285 | 5014 ft | 231 kts | 221° |
| 2026-05-05 23:38 | -33.62732 | -70.87550 | 5015 ft | 230 kts | 221° |
| 2026-05-05 23:38 | -33.63942 | -70.88812 | 5023 ft | 231 kts | 220° |
| 2026-05-05 23:38 | -33.65333 | -70.89728 | 5021 ft | 229 kts | 191° |
| 2026-05-05 23:39 | -33.66901 | -70.89648 | 5020 ft | 228 kts | 159° |
| 2026-05-05 23:39 | -33.68169 | -70.88608 | 5013 ft | 226 kts | 127° |
| 2026-05-05 23:39 | -33.68783 | -70.86917 | 5018 ft | 223 kts | 94° |
| 2026-05-05 23:39 | -33.68547 | -70.85133 | 5014 ft | 222 kts | 62° |
| 2026-05-05 23:40 | -33.67589 | -70.83686 | 5019 ft | 227 kts | 44° |
| 2026-05-05 23:40 | -33.66417 | -70.82394 | 5020 ft | 232 kts | 41° |
| 2026-05-05 23:40 | -33.65198 | -70.81111 | 5006 ft | 233 kts | 41° |
| 2026-05-05 23:40 | -33.63972 | -70.79831 | 5011 ft | 234 kts | 40° |
| 2026-05-05 23:41 | -33.62740 | -70.78564 | 5011 ft | 233 kts | 37° |
| 2026-05-05 23:41 | -33.61306 | -70.77746 | 5021 ft | 233 kts | 13° |
| 2026-05-05 23:41 | -33.59706 | -70.77396 | 5015 ft | 234 kts | 10° |
| 2026-05-05 23:41 | -33.58100 | -70.77069 | 5011 ft | 234 kts | 10° |
| 2026-05-05 23:42 | -33.56491 | -70.76747 | 5020 ft | 234 kts | 9° |
| 2026-05-05 23:42 | -33.54881 | -70.76433 | 5014 ft | 234 kts | 9° |
| 2026-05-05 23:42 | -33.53278 | -70.76125 | 5005 ft | 234 kts | 9° |
| 2026-05-05 23:42 | -33.51673 | -70.75820 | 5004 ft | 234 kts | 9° |
| 2026-05-05 23:43 | -33.50060 | -70.75517 | 5010 ft | 235 kts | 9° |
| 2026-05-05 23:43 | -33.48448 | -70.75213 | 5004 ft | 235 kts | 9° |
| 2026-05-05 23:43 | -33.46859 | -70.74908 | 5002 ft | 234 kts | 9° |
| 2026-05-05 23:43 | -33.45252 | -70.74598 | 5004 ft | 234 kts | 9° |
| 2026-05-05 23:44 | -33.43647 | -70.74293 | 5005 ft | 234 kts | 9° |
| 2026-05-05 23:44 | -33.42059 | -70.73996 | 5001 ft | 228 kts | 9° |
| 2026-05-05 23:44 | -33.40523 | -70.73721 | 5000 ft | 217 kts | 9° |
| 2026-05-05 23:44 | -33.39074 | -70.73469 | 5003 ft | 206 kts | 9° |
| 2026-05-05 23:45 | -33.37661 | -70.73305 | 4993 ft | 203 kts | 1° |
| 2026-05-05 23:45 | -33.36234 | -70.73354 | 4658 ft | 209 kts | 358° |
| 2026-05-05 23:45 | -33.34822 | -70.73451 | 4306 ft | 202 kts | 357° |
| 2026-05-05 23:45 | -33.33441 | -70.73550 | 3922 ft | 196 kts | 357° |
| 2026-05-05 23:46 | -33.32099 | -70.73645 | 3545 ft | 192 kts | 357° |
| 2026-05-05 23:46 | -33.30779 | -70.73739 | 3170 ft | 189 kts | 356° |
| 2026-05-05 23:46 | -33.29562 | -70.74203 | 2857 ft | 184 kts | 323° |
| 2026-05-05 23:46 | -33.28893 | -70.75466 | 2553 ft | 182 kts | 281° |
| 2026-05-05 23:47 | -33.28837 | -70.76899 | 2504 ft | 164 kts | 261° |
| 2026-05-05 23:47 | -33.29130 | -70.78174 | 2511 ft | 156 kts | 243° |
| 2026-05-05 23:47 | -33.29688 | -70.79259 | 2506 ft | 151 kts | 227° |
| 2026-05-05 23:47 | -33.30460 | -70.80086 | 2513 ft | 148 kts | 210° |
| 2026-05-05 23:48 | -33.31378 | -70.80570 | 2509 ft | 146 kts | 191° |
| 2026-05-05 23:48 | -33.32382 | -70.80640 | 2461 ft | 145 kts | 176° |
| 2026-05-05 23:48 | -33.33387 | -70.80585 | 2310 ft | 145 kts | 176° |
| 2026-05-05 23:48 | -33.34386 | -70.80529 | 2134 ft | 143 kts | 176° |
| 2026-05-05 23:49 | -33.35390 | -70.80479 | 1997 ft | 149 kts | 177° |
| 2026-05-05 23:49 | -33.36452 | -70.80457 | 2282 ft | 152 kts | 178° |
| 2026-05-05 23:49 | -33.37507 | -70.80435 | 2695 ft | 153 kts | 178° |
| 2026-05-05 23:49 | -33.38585 | -70.80403 | 3135 ft | 155 kts | 177° |
| 2026-05-05 23:50 | -33.39659 | -70.80356 | 3562 ft | 158 kts | 180° |
| 2026-05-05 23:50 | -33.40775 | -70.80317 | 3935 ft | 163 kts | 181° |
| 2026-05-05 23:50 | -33.41918 | -70.80269 | 4321 ft | 166 kts | 178° |
| 2026-05-05 23:50 | -33.43010 | -70.79819 | 4504 ft | 171 kts | 150° |
| 2026-05-05 23:51 | -33.43822 | -70.78718 | 4097 ft | 188 kts | 114° |
| 2026-05-05 23:51 | -33.44034 | -70.77101 | 3387 ft | 208 kts | 94° |
| 2026-05-05 23:51 | -33.43632 | -70.75436 | 3052 ft | 215 kts | 59° |
| 2026-05-05 23:51 | -33.42518 | -70.74262 | 3002 ft | 219 kts | 30° |
| 2026-05-05 23:52 | -33.41021 | -70.73914 | 3016 ft | 224 kts | 5° |
| 2026-05-05 23:52 | -33.39490 | -70.74056 | 3005 ft | 223 kts | 359° |
| 2026-05-05 23:52 | -33.37940 | -70.74265 | 3013 ft | 225 kts | 359° |
| 2026-05-05 23:52 | -33.36404 | -70.74474 | 3000 ft | 216 kts | 357° |
| 2026-05-05 23:53 | -33.35100 | -70.75114 | 2823 ft | 199 kts | 313° |
| 2026-05-05 23:53 | -33.34753 | -70.76586 | 2605 ft | 176 kts | 264° |
| 2026-05-05 23:53 | -33.35213 | -70.77853 | 2312 ft | 168 kts | 228° |
| 2026-05-05 23:53 | -33.36202 | -70.78488 | 1879 ft | 165 kts | 193° |
| 2026-05-05 23:54 | -33.37289 | -70.78715 | 1673 ft | 154 kts | 181° |
| 2026-05-05 23:54 | -33.38309 | -70.78628 | 1586 ft | 139 kts | 181° |
| 2026-05-05 23:54 | -33.39209 | -70.78580 | 1565 ft | 116 kts | 175° |
| 2026-05-05 23:54 | -33.39857 | -70.78534 | 1564 ft | 69 kts | 176° |
| 2026-05-05 23:55 | -33.40177 | -70.78525 | 1566 ft | 25 kts | 182° |
| 2026-05-05 23:55 | -33.40346 | -70.78530 | 1565 ft | 24 kts | 187° |
| 2026-05-05 23:55 | -33.40469 | -70.78562 | 1565 ft | 12 kts | 228° |
| 2026-05-05 23:55 | -33.40474 | -70.78656 | 1564 ft | 11 kts | 315° |
| 2026-05-05 23:56 | -33.40407 | -70.78709 | 1564 ft | 9 kts | 338° |
| 2026-05-05 23:56 | -33.40405 | -70.78710 | 1564 ft | 0 kts | 338° |